createdAt,value
2018-09-28T00:01:03.261Z,16.20
2018-09-28T00:03:31.630Z,16.30
2018-09-28T00:05:59.834Z,16.10
2018-09-28T00:08:28.106Z,16.10
2018-09-28T00:10:56.326Z,16.00
2018-09-28T00:13:24.665Z,15.70
2018-09-28T00:15:52.985Z,15.80
2018-09-28T00:18:21.224Z,16.00
2018-09-28T00:20:49.453Z,16.00
2018-09-28T00:23:17.682Z,16.20
2018-09-28T00:25:45.991Z,16.10
2018-09-28T00:28:14.366Z,15.90
2018-09-28T00:30:42.619Z,16.00
2018-09-28T00:33:10.875Z,16.20
2018-09-28T00:35:39.121Z,15.90
2018-09-28T00:38:07.365Z,15.90
2018-09-28T00:40:35.597Z,15.80
2018-09-28T00:43:03.817Z,15.90
2018-09-28T00:45:32.050Z,15.90
2018-09-28T00:48:00.293Z,16.00
2018-09-28T00:50:28.517Z,15.80
2018-09-28T00:52:57.026Z,15.70
2018-09-28T00:55:25.305Z,15.50
2018-09-28T00:57:53.581Z,15.50
2018-09-28T01:00:21.806Z,15.90
2018-09-28T01:02:50.014Z,16.20
2018-09-28T01:05:18.301Z,16.30
2018-09-28T01:07:46.555Z,16.20
2018-09-28T01:10:14.830Z,16.20
2018-09-28T01:12:43.143Z,16.00
2018-09-28T01:15:11.427Z,16.10
2018-09-28T01:17:39.645Z,16.20
2018-09-28T01:20:07.852Z,16.20
2018-09-28T01:22:36.261Z,16.20
2018-09-28T01:25:04.478Z,16.30
2018-09-28T01:27:32.757Z,16.50
2018-09-28T01:30:01.065Z,16.60
2018-09-28T01:32:29.289Z,16.50
2018-09-28T01:34:57.499Z,16.60
2018-09-28T01:37:25.701Z,16.50
2018-09-28T01:39:54.011Z,16.60
2018-09-28T01:42:22.255Z,16.80
2018-09-28T01:44:50.521Z,16.80
2018-09-28T01:47:18.809Z,16.70
2018-09-28T01:49:47.085Z,17.00
2018-09-28T01:52:15.333Z,16.70
2018-09-28T01:54:43.601Z,16.70
2018-09-28T01:57:11.861Z,16.70
2018-09-28T01:59:40.098Z,16.90
2018-09-28T02:02:08.385Z,16.90
2018-09-28T02:04:36.639Z,16.70
2018-09-28T02:07:04.914Z,16.90
2018-09-28T02:09:33.137Z,16.90
2018-09-28T02:12:01.495Z,16.80
2018-09-28T02:14:29.723Z,16.80
2018-09-28T02:16:57.995Z,17.00
2018-09-28T02:19:26.225Z,17.00
2018-09-28T02:21:54.442Z,17.00
2018-09-28T02:24:22.668Z,17.00
2018-09-28T02:26:50.955Z,17.20
2018-09-28T02:29:19.221Z,16.90
2018-09-28T02:31:47.826Z,17.10
2018-09-28T02:34:16.101Z,17.00
2018-09-28T02:36:44.349Z,17.10
2018-09-28T02:39:12.682Z,17.00
2018-09-28T02:41:40.957Z,17.20
2018-09-28T02:44:09.193Z,17.20
2018-09-28T02:46:37.456Z,17.20
2018-09-28T02:49:05.989Z,17.30
2018-09-28T02:51:34.257Z,17.30
2018-09-28T02:54:02.540Z,17.10
2018-09-28T02:56:30.764Z,16.90
2018-09-28T02:58:58.998Z,16.90
2018-09-28T03:01:27.222Z,16.80
2018-09-28T03:03:55.486Z,17.10
2018-09-28T03:06:23.899Z,17.10
2018-09-28T03:08:52.009Z,16.90
2018-09-28T03:11:20.270Z,16.90
2018-09-28T03:13:48.489Z,16.70
2018-09-28T03:16:16.724Z,16.70
2018-09-28T03:18:45.036Z,16.70
2018-09-28T03:21:13.297Z,17.00
2018-09-28T03:23:41.520Z,17.00
2018-09-28T03:26:09.793Z,17.00
2018-09-28T03:28:38.095Z,17.20
2018-09-28T03:31:06.345Z,16.90
2018-09-28T03:33:34.621Z,16.80
2018-09-28T03:36:02.901Z,16.80
2018-09-28T03:38:31.174Z,16.70
2018-09-28T03:40:59.484Z,16.50
2018-09-28T03:43:27.721Z,16.90
2018-09-28T03:45:55.948Z,17.00
2018-09-28T03:48:24.210Z,16.80
2018-09-28T03:50:52.458Z,16.60
2018-09-28T03:53:20.771Z,16.50
2018-09-28T03:55:48.988Z,16.50
2018-09-28T03:58:17.198Z,16.50
2018-09-28T04:00:45.507Z,16.70
2018-09-28T04:03:13.819Z,16.50
2018-09-28T04:05:42.017Z,16.40
2018-09-28T04:08:10.221Z,16.40
2018-09-28T04:10:38.465Z,16.10
2018-09-28T04:13:06.877Z,16.10
2018-09-28T04:15:35.138Z,16.10
2018-09-28T04:18:03.358Z,16.00
2018-09-28T04:20:31.558Z,16.10
2018-09-28T04:22:59.798Z,16.10
2018-09-28T04:25:28.082Z,16.10
2018-09-28T04:27:56.442Z,16.10
2018-09-28T04:30:24.690Z,16.00
2018-09-28T04:32:52.936Z,15.80
2018-09-28T04:35:21.213Z,16.10
2018-09-28T04:37:49.688Z,16.10
2018-09-28T04:40:17.899Z,16.10
2018-09-28T04:42:46.254Z,16.00
2018-09-28T04:45:14.539Z,16.20
2018-09-28T04:47:42.718Z,16.10
2018-09-28T04:50:10.989Z,16.20
2018-09-28T04:52:39.246Z,16.40
2018-09-28T04:55:07.523Z,16.20
2018-09-28T04:57:35.737Z,15.90
2018-09-28T05:00:03.957Z,15.80
2018-09-28T05:02:32.189Z,15.90
2018-09-28T05:05:00.537Z,15.60
2018-09-28T05:07:28.765Z,16.00
2018-09-28T05:09:57.025Z,15.90
2018-09-28T05:12:25.583Z,16.00
2018-09-28T05:14:53.785Z,16.00
2018-09-28T05:17:22.128Z,16.00
2018-09-28T05:19:50.387Z,16.00
2018-09-28T05:22:18.828Z,16.20
2018-09-28T05:24:47.182Z,16.00
2018-09-28T05:27:15.418Z,15.90
2018-09-28T05:29:43.688Z,15.40
2018-09-28T05:32:12.031Z,15.50
2018-09-28T05:34:40.489Z,15.40
2018-09-28T05:37:08.908Z,15.50
2018-09-28T05:39:37.124Z,15.70
2018-09-28T05:42:05.361Z,15.80
2018-09-28T05:44:33.626Z,15.70
2018-09-28T05:47:01.955Z,15.70
2018-09-28T05:49:30.205Z,15.80
2018-09-28T05:51:58.433Z,15.90
2018-09-28T05:54:26.738Z,15.90
2018-09-28T05:56:55.541Z,16.10
2018-09-28T05:59:29.105Z,15.90
2018-09-28T06:02:02.694Z,15.80
2018-09-28T06:04:36.297Z,15.70
2018-09-28T06:07:04.576Z,15.60
2018-09-28T06:09:32.822Z,15.70
2018-09-28T06:12:01.121Z,15.70
2018-09-28T06:14:29.329Z,15.60
2018-09-28T06:16:57.545Z,15.30
2018-09-28T06:19:25.950Z,15.50
2018-09-28T06:21:54.150Z,15.90
2018-09-28T06:24:22.502Z,15.60
2018-09-28T06:26:50.753Z,15.40
2018-09-28T06:29:18.953Z,15.40
2018-09-28T06:31:47.219Z,15.50
2018-09-28T06:34:15.526Z,15.70
2018-09-28T06:36:43.789Z,15.90
2018-09-28T06:39:12.075Z,15.90
2018-09-28T06:41:40.433Z,15.50
2018-09-28T06:44:08.806Z,15.30
2018-09-28T06:46:37.105Z,15.40
2018-09-28T06:49:05.503Z,15.20
2018-09-28T06:51:34.921Z,15.10
2018-09-28T06:54:03.191Z,15.40
2018-09-28T06:56:31.449Z,15.40
2018-09-28T06:58:59.677Z,15.50
2018-09-28T07:01:27.935Z,15.50
2018-09-28T07:03:56.400Z,15.60
2018-09-28T07:06:24.629Z,16.00
2018-09-28T07:08:52.897Z,15.90
2018-09-28T07:11:21.149Z,16.00
2018-09-28T07:13:49.389Z,16.00
2018-09-28T07:16:17.642Z,15.80
2018-09-28T07:18:45.855Z,15.80
2018-09-28T07:21:14.350Z,16.10
2018-09-28T07:23:42.641Z,16.10
2018-09-28T07:26:10.897Z,16.30
2018-09-28T07:28:39.114Z,15.90
2018-09-28T07:31:07.702Z,15.40
2018-09-28T07:33:35.965Z,15.60
2018-09-28T07:36:04.437Z,15.50
2018-09-28T07:38:32.514Z,15.40
2018-09-28T07:41:00.742Z,16.00
2018-09-28T07:43:29.002Z,16.40
2018-09-28T07:45:57.319Z,16.20
2018-09-28T07:48:25.561Z,16.10
2018-09-28T07:50:53.940Z,16.30
2018-09-28T07:53:22.169Z,16.40
2018-09-28T07:55:50.539Z,16.10
2018-09-28T07:58:18.699Z,16.30
2018-09-28T08:00:46.913Z,16.60
2018-09-28T08:03:15.223Z,16.40
2018-09-28T08:05:43.448Z,16.60
2018-09-28T08:08:11.651Z,16.50
2018-09-28T08:10:39.869Z,16.80
2018-09-28T08:13:08.082Z,16.60
2018-09-28T08:15:36.495Z,16.50
2018-09-28T08:18:04.698Z,16.20
2018-09-28T08:20:32.950Z,16.20
2018-09-28T08:23:01.173Z,16.40
2018-09-28T08:25:29.370Z,16.60
2018-09-28T08:27:57.613Z,17.00
2018-09-28T08:30:25.924Z,16.70
2018-09-28T08:32:54.154Z,16.40
2018-09-28T08:35:22.449Z,16.60
2018-09-28T08:37:51.000Z,16.60
2018-09-28T08:40:19.410Z,16.10
2018-09-28T08:42:47.698Z,16.20
2018-09-28T08:45:16.023Z,16.30
2018-09-28T08:47:44.293Z,16.80
2018-09-28T08:50:12.616Z,17.40
2018-09-28T08:52:40.910Z,17.80
2018-09-28T08:55:09.178Z,18.50
2018-09-28T08:57:37.449Z,19.10
2018-09-28T09:00:05.826Z,19.40
2018-09-28T09:02:34.085Z,19.80
2018-09-28T09:05:02.383Z,19.70
2018-09-28T09:07:30.678Z,19.10
2018-09-28T09:09:58.934Z,18.80
2018-09-28T09:12:27.209Z,18.50
2018-09-28T09:14:55.458Z,18.20
2018-09-28T09:17:23.686Z,18.20
2018-09-28T09:19:51.893Z,17.90
2018-09-28T09:22:20.106Z,17.80
2018-09-28T09:24:48.442Z,17.50
2018-09-28T09:27:16.742Z,17.70
2018-09-28T09:29:45.088Z,17.80
2018-09-28T09:32:13.281Z,18.00
2018-09-28T09:34:41.496Z,18.00
2018-09-28T09:37:09.710Z,18.70
2018-09-28T09:39:37.925Z,19.00
2018-09-28T09:42:06.130Z,18.90
2018-09-28T09:44:34.393Z,18.60
2018-09-28T09:47:02.713Z,18.80
2018-09-28T09:49:30.986Z,18.70
2018-09-28T09:51:59.222Z,18.90
2018-09-28T09:54:27.438Z,19.00
2018-09-28T09:56:55.714Z,18.80
2018-09-28T09:59:23.922Z,18.20
2018-09-28T10:01:57.679Z,18.10
2018-09-28T10:04:25.961Z,18.40
2018-09-28T10:06:54.187Z,18.60
2018-09-28T10:09:22.459Z,18.50
2018-09-28T10:11:50.735Z,18.80
2018-09-28T10:14:19.116Z,18.70
2018-09-28T10:16:47.431Z,18.70
2018-09-28T10:19:15.724Z,18.50
2018-09-28T10:21:44.039Z,18.50
2018-09-28T10:24:12.290Z,19.00
2018-09-28T10:26:40.578Z,18.90
2018-09-28T10:29:09.162Z,19.20
2018-09-28T10:31:37.415Z,19.10
2018-09-28T10:34:12.254Z,18.80
2018-09-28T10:36:40.541Z,19.10
2018-09-28T10:39:09.047Z,19.90
2018-09-28T10:41:37.330Z,19.90
2018-09-28T10:44:05.942Z,20.50
2018-09-28T10:46:34.408Z,20.60
2018-09-28T10:49:02.725Z,20.70
2018-09-28T10:51:31.109Z,20.20
2018-09-28T10:53:59.283Z,19.50
2018-09-28T10:56:27.597Z,20.10
2018-09-28T10:58:56.002Z,18.90
2018-09-28T11:01:24.138Z,19.30
2018-09-28T11:03:52.358Z,19.80
2018-09-28T11:06:20.593Z,19.90
2018-09-28T11:08:48.860Z,20.00
2018-09-28T11:11:17.050Z,20.30
2018-09-28T11:13:45.279Z,20.80
2018-09-28T11:16:13.542Z,20.30
2018-09-28T11:18:42.088Z,19.80
2018-09-28T11:21:10.461Z,19.40
2018-09-28T11:23:38.687Z,19.10
2018-09-28T11:26:07.065Z,18.60
2018-09-28T11:28:35.342Z,18.40
2018-09-28T11:31:03.664Z,18.10
2018-09-28T11:33:32.046Z,17.40
2018-09-28T11:36:00.551Z,17.40
2018-09-28T11:38:29.635Z,17.00
2018-09-28T11:40:57.954Z,17.40
2018-09-28T11:45:54.246Z,17.10
2018-09-28T11:48:22.394Z,17.10
2018-09-28T11:50:50.722Z,16.80
2018-09-28T11:53:18.997Z,16.80
2018-09-28T11:55:47.254Z,17.00
2018-09-28T11:58:15.494Z,17.30
2018-09-28T12:00:43.717Z,17.70
2018-09-28T12:03:11.996Z,17.80
2018-09-28T12:05:40.227Z,18.00
2018-09-28T12:08:08.477Z,18.10
2018-09-28T12:10:36.735Z,18.50
2018-09-28T12:13:05.021Z,18.90
2018-09-28T12:15:33.327Z,19.10
2018-09-28T12:18:01.510Z,19.30
2018-09-28T12:20:29.739Z,18.80
2018-09-28T12:22:57.984Z,18.80
2018-09-28T12:25:26.189Z,18.70
2018-09-28T12:27:54.418Z,18.70
2018-09-28T12:30:22.776Z,18.40
2018-09-28T12:32:50.990Z,18.60
2018-09-28T12:35:19.316Z,18.90
2018-09-28T12:37:47.586Z,18.60
2018-09-28T12:40:15.844Z,18.10
2018-09-28T12:42:44.155Z,18.50
2018-09-28T12:45:12.547Z,18.70
2018-09-28T12:47:40.800Z,19.10
2018-09-28T12:50:09.064Z,19.10
2018-09-28T12:52:37.338Z,18.70
2018-09-28T12:55:05.597Z,18.60
2018-09-28T12:57:33.827Z,18.70
2018-09-28T13:00:02.116Z,19.10
2018-09-28T13:02:30.384Z,18.80
2018-09-28T13:04:58.601Z,18.40
2018-09-28T13:07:26.798Z,17.60
2018-09-28T13:09:55.457Z,17.30
2018-09-28T13:12:23.739Z,17.10
2018-09-28T13:14:52.032Z,17.20
2018-09-28T13:17:20.245Z,17.70
2018-09-28T13:19:48.534Z,17.60
2018-09-28T13:22:16.802Z,17.80
2018-09-28T13:24:45.086Z,17.40
2018-09-28T13:27:13.295Z,17.40
2018-09-28T13:29:41.512Z,17.50
2018-09-28T13:32:09.777Z,17.70
2018-09-28T13:34:38.018Z,17.70
2018-09-28T13:37:06.634Z,17.80
2018-09-28T13:39:34.866Z,18.00
2018-09-28T13:42:03.172Z,18.30
2018-09-28T13:44:31.592Z,18.10
2018-09-28T13:46:59.850Z,18.40
2018-09-28T13:49:28.128Z,18.20
2018-09-28T13:51:56.418Z,18.00
2018-09-28T13:54:24.700Z,18.10
2018-09-28T13:56:52.950Z,18.00
2018-09-28T13:59:21.178Z,18.30
2018-09-28T14:01:49.608Z,18.40
2018-09-28T14:04:17.945Z,18.20
2018-09-28T14:06:46.211Z,17.70
2018-09-28T14:09:14.405Z,17.40
2018-09-28T14:11:42.678Z,17.40
2018-09-28T14:14:10.905Z,17.40
2018-09-28T14:16:39.255Z,17.30
2018-09-28T14:19:07.472Z,17.50
2018-09-28T14:21:35.950Z,17.30
2018-09-28T14:24:04.214Z,17.40
2018-09-28T14:26:32.499Z,17.50
2018-09-28T14:29:00.769Z,17.30
2018-09-28T14:31:28.978Z,17.30
2018-09-28T14:33:57.226Z,17.20
2018-09-28T14:36:25.520Z,17.30
2018-09-28T14:38:54.055Z,17.30
2018-09-28T14:41:22.264Z,17.20
2018-09-28T14:43:50.484Z,17.20
2018-09-28T14:46:18.766Z,17.40
2018-09-28T14:48:47.139Z,17.60
2018-09-28T14:51:15.246Z,17.60
2018-09-28T14:53:43.522Z,17.50
2018-09-28T14:56:11.802Z,17.50
2018-09-28T14:58:40.026Z,18.00
2018-09-28T15:01:08.273Z,17.80
2018-09-28T15:03:36.469Z,17.50
2018-09-28T15:06:04.811Z,17.70
2018-09-28T15:08:33.115Z,17.60
2018-09-28T15:11:01.310Z,17.30
2018-09-28T15:13:29.530Z,17.60
2018-09-28T15:15:57.977Z,17.70
2018-09-28T15:18:26.354Z,17.30
2018-09-28T15:20:54.620Z,17.30
2018-09-28T15:23:22.877Z,17.10
2018-09-28T15:25:51.148Z,17.30
2018-09-28T15:28:19.426Z,17.30
2018-09-28T15:30:47.865Z,17.00
2018-09-28T15:33:16.498Z,17.10
2018-09-28T15:35:44.811Z,17.20
2018-09-28T15:38:13.161Z,17.30
2018-09-28T15:40:41.473Z,17.10
2018-09-28T15:43:09.713Z,17.10
2018-09-28T15:45:38.070Z,17.20
2018-09-28T15:48:06.322Z,17.10
2018-09-28T15:50:34.578Z,17.10
2018-09-28T15:53:02.978Z,16.90
2018-09-28T15:55:31.585Z,16.60
2018-09-28T15:58:00.042Z,16.60
2018-09-28T16:00:28.387Z,16.80
2018-09-28T16:02:56.642Z,16.40
2018-09-28T16:05:24.910Z,16.60
2018-09-28T16:07:53.224Z,16.70
2018-09-28T16:10:21.499Z,16.60
2018-09-28T16:12:49.774Z,16.40
2018-09-28T16:15:18.042Z,16.60
2018-09-28T16:17:46.741Z,16.40
2018-09-28T16:20:15.022Z,16.40
2018-09-28T16:22:43.354Z,16.40
2018-09-28T16:25:11.617Z,16.30
2018-09-28T16:27:39.862Z,16.50
2018-09-28T16:30:08.180Z,16.60
2018-09-28T16:32:36.479Z,16.30
2018-09-28T16:35:04.977Z,16.40
2018-09-28T16:37:33.190Z,16.60
2018-09-28T16:40:01.778Z,16.40
2018-09-28T16:42:30.174Z,16.40
2018-09-28T16:44:58.377Z,16.30
2018-09-28T16:47:26.791Z,16.50
2018-09-28T16:49:55.136Z,16.20
2018-09-28T16:52:23.344Z,16.20
2018-09-28T16:54:51.670Z,16.20
2018-09-28T16:57:19.939Z,16.20
2018-09-28T16:59:48.159Z,16.20
2018-09-28T17:02:16.418Z,16.00
2018-09-28T17:04:44.742Z,15.80
2018-09-28T17:07:13.050Z,15.90
2018-09-28T17:09:41.348Z,15.90
2018-09-28T17:12:09.601Z,15.90
2018-09-28T17:14:37.903Z,15.80
2018-09-28T17:17:06.476Z,15.70
2018-09-28T17:19:34.770Z,15.80
2018-09-28T17:22:03.133Z,15.70
2018-09-28T17:24:31.409Z,15.90
2018-09-28T17:26:59.688Z,15.80
2018-09-28T17:29:27.966Z,15.80
2018-09-28T17:31:56.369Z,15.70
2018-09-28T17:34:24.690Z,15.50
2018-09-28T17:36:53.095Z,15.30
2018-09-28T17:39:21.479Z,15.30
2018-09-28T17:41:49.800Z,15.40
2018-09-28T17:44:18.091Z,15.70
2018-09-28T17:46:46.387Z,15.60
2018-09-28T17:49:14.738Z,15.60
2018-09-28T17:51:42.965Z,15.40
2018-09-28T17:54:11.262Z,15.30
2018-09-28T17:56:39.610Z,15.10
2018-09-28T17:59:08.196Z,15.20
2018-09-28T18:01:36.507Z,15.30
2018-09-28T18:04:04.879Z,15.20
2018-09-28T18:06:33.454Z,15.00
2018-09-28T18:09:01.709Z,15.00
2018-09-28T18:11:30.273Z,15.10
2018-09-28T18:13:58.532Z,15.00
2018-09-28T18:16:26.822Z,15.00
2018-09-28T18:18:55.176Z,15.00
2018-09-28T18:21:23.491Z,15.00
2018-09-28T18:23:51.857Z,14.90
2018-09-28T18:26:20.097Z,14.70
2018-09-28T18:28:48.425Z,14.60
2018-09-28T18:31:16.639Z,14.90
2018-09-28T18:33:44.845Z,14.80
2018-09-28T18:36:13.157Z,14.70
2018-09-28T18:38:41.487Z,14.70
2018-09-28T18:41:09.769Z,14.70
2018-09-28T18:43:37.996Z,14.60
2018-09-28T18:46:06.519Z,14.80
2018-09-28T18:48:34.832Z,14.60
2018-09-28T18:51:03.148Z,14.60
2018-09-28T18:53:31.758Z,14.40
2018-09-28T18:56:00.103Z,14.20
2018-09-28T18:58:28.375Z,14.10
2018-09-28T19:00:56.764Z,14.30
2018-09-28T19:03:25.081Z,14.30
2018-09-28T19:05:53.300Z,14.40
2018-09-28T19:08:21.574Z,14.30
2018-09-28T19:10:49.849Z,14.40
2018-09-28T19:13:18.471Z,14.60
2018-09-28T19:15:46.718Z,14.10
2018-09-28T19:18:15.027Z,13.90
2018-09-28T19:20:43.254Z,14.10
2018-09-28T19:23:11.542Z,14.00
2018-09-28T19:25:39.869Z,14.00
2018-09-28T19:28:08.085Z,13.90
2018-09-28T19:30:36.320Z,13.70
2018-09-28T19:33:04.576Z,13.50
2018-09-28T19:35:33.120Z,13.60
2018-09-28T19:38:01.382Z,13.70
2018-09-28T19:40:29.725Z,13.70
2018-09-28T19:42:58.035Z,13.70
2018-09-28T19:45:26.337Z,13.60
2018-09-28T19:47:54.593Z,13.70
2018-09-28T19:50:22.957Z,13.70
2018-09-28T19:52:51.243Z,13.70
2018-09-28T19:55:19.717Z,13.20
2018-09-28T20:02:44.348Z,12.80
2018-09-28T20:05:12.617Z,13.00
2018-09-28T20:10:08.871Z,13.50
2018-09-28T20:12:37.145Z,13.50
2018-09-28T20:20:01.590Z,13.60
2018-09-28T20:22:29.794Z,13.50
2018-09-28T20:24:58.070Z,13.50
2018-09-28T20:27:26.393Z,13.50
2018-09-28T20:29:54.661Z,13.70
2018-09-28T20:32:22.898Z,13.80
2018-09-28T20:34:51.109Z,13.70
2018-09-28T20:37:19.402Z,13.40
2018-09-28T20:39:48.430Z,13.60
2018-09-28T20:42:16.673Z,13.50
2018-09-28T20:44:45.141Z,13.50
2018-09-28T20:47:13.426Z,13.50
2018-09-28T20:49:41.689Z,13.50
2018-09-28T20:52:09.935Z,13.30
2018-09-28T20:54:38.205Z,13.50
2018-09-28T20:57:06.525Z,13.40
2018-09-28T20:59:34.794Z,13.50
2018-09-28T21:02:03.133Z,13.40
2018-09-28T21:04:31.345Z,13.40
2018-09-28T21:06:59.558Z,13.50
2018-09-28T21:09:27.794Z,13.50
2018-09-28T21:11:56.034Z,13.50
2018-09-28T21:14:24.322Z,13.50
2018-09-28T21:16:52.594Z,13.40
2018-09-28T21:19:20.821Z,13.20
2018-09-28T21:21:49.041Z,13.30
2018-09-28T21:24:17.346Z,13.40
2018-09-28T21:26:45.621Z,13.40
2018-09-28T21:29:13.920Z,13.40
2018-09-28T21:31:42.174Z,13.20
2018-09-28T21:34:10.453Z,13.20
2018-09-28T21:36:38.701Z,13.40
2018-09-28T21:39:08.591Z,13.40
2018-09-28T21:41:36.857Z,13.40
2018-09-28T21:44:05.291Z,13.30
2018-09-28T21:46:33.562Z,13.20
2018-09-28T21:49:01.799Z,13.30
2018-09-28T21:51:30.036Z,13.30
2018-09-28T21:53:58.393Z,13.10
2018-09-28T21:56:26.678Z,13.20
2018-09-28T21:58:54.922Z,13.20
2018-09-28T22:01:23.144Z,13.20
2018-09-28T22:03:51.345Z,13.10
2018-09-28T22:06:19.575Z,13.00
2018-09-28T22:08:47.797Z,12.90
2018-09-28T22:11:16.257Z,12.80
2018-09-28T22:13:44.512Z,12.80
2018-09-28T22:18:40.778Z,12.60
2018-09-28T22:21:09.069Z,12.70
2018-09-28T22:23:37.270Z,12.70
2018-09-28T22:26:05.746Z,12.70
2018-09-28T22:28:33.947Z,12.60
2018-09-28T22:31:02.201Z,12.50
2018-09-28T22:33:30.498Z,12.70
2018-09-28T22:35:58.689Z,12.60
2018-09-28T22:38:26.934Z,12.50
2018-09-28T22:43:23.509Z,12.50
2018-09-28T22:45:51.777Z,10.00
2018-09-28T22:48:20.101Z,12.60
2018-09-28T22:50:48.356Z,12.50
2018-09-28T22:53:16.610Z,12.20
2018-09-28T22:55:44.934Z,12.20
2018-09-28T22:58:13.189Z,12.20
2018-09-28T23:00:41.441Z,12.20
2018-09-28T23:03:09.674Z,11.90
2018-09-28T23:05:37.968Z,12.10
2018-09-28T23:08:06.235Z,12.10
2018-09-28T23:10:34.448Z,12.30
2018-09-28T23:13:02.669Z,12.30
2018-09-28T23:15:31.243Z,12.30
2018-09-28T23:17:59.473Z,12.30
2018-09-28T23:20:27.664Z,12.20
2018-09-28T23:22:55.873Z,12.20
2018-09-28T23:27:52.190Z,12.00
2018-09-28T23:30:20.489Z,11.90
2018-09-28T23:32:48.720Z,11.90
2018-09-28T23:35:17.041Z,11.90
2018-09-28T23:37:45.300Z,12.10
2018-09-28T23:40:13.541Z,11.90
2018-09-28T23:42:42.381Z,11.90
2018-09-28T23:45:10.665Z,11.70
2018-09-28T23:47:38.942Z,11.80
2018-09-28T23:50:07.378Z,11.80
2018-09-28T23:52:35.589Z,11.70
2018-09-28T23:55:03.889Z,11.70
2018-09-28T23:57:32.285Z,11.90
